sensor_id;sensor_type;location;lat;lon;timestamp;P1;durP1;ratioP1;P2;durP2;ratioP2
25667;SDS011;18003;-33.830;151.202;2023-03-21T00:00:19;11.43;;;3.52;;
25667;SDS011;18003;-33.830;151.202;2023-03-21T00:02:49;14.28;;;4.15;;
25667;SDS011;18003;-33.830;151.202;2023-03-21T00:05:19;10.28;;;3.33;;
25667;SDS011;18003;-33.830;151.202;2023-03-21T00:07:50;10.90;;;3.08;;
25667;SDS011;18003;-33.830;151.202;2023-03-21T00:10:20;10.60;;;3.20;;
25667;SDS011;18003;-33.830;151.202;2023-03-21T00:12:50;14.90;;;4.03;;
25667;SDS011;18003;-33.830;151.202;2023-03-21T00:15:21;13.65;;;3.37;;
25667;SDS011;18003;-33.830;151.202;2023-03-21T00:17:55;24.07;;;3.77;;
25667;SDS011;18003;-33.830;151.202;2023-03-21T00:20:26;16.80;;;3.55;;
25667;SDS011;18003;-33.830;151.202;2023-03-21T00:22:57;12.30;;;3.20;;
25667;SDS011;18003;-33.830;151.202;2023-03-21T00:25:27;10.68;;;3.02;;
25667;SDS011;18003;-33.830;151.202;2023-03-21T00:27:58;10.70;;;2.90;;
25667;SDS011;18003;-33.830;151.202;2023-03-21T00:30:29;9.55;;;3.05;;
25667;SDS011;18003;-33.830;151.202;2023-03-21T00:32:59;13.13;;;3.47;;
25667;SDS011;18003;-33.830;151.202;2023-03-21T00:35:29;12.70;;;3.62;;
25667;SDS011;18003;-33.830;151.202;2023-03-21T00:37:59;8.50;;;2.92;;
25667;SDS011;18003;-33.830;151.202;2023-03-21T00:40:29;11.40;;;3.40;;
25667;SDS011;18003;-33.830;151.202;2023-03-21T00:42:59;8.88;;;3.12;;
25667;SDS011;18003;-33.830;151.202;2023-03-21T00:45:32;11.40;;;4.30;;
25667;SDS011;18003;-33.830;151.202;2023-03-21T00:48:02;13.70;;;3.80;;
25667;SDS011;18003;-33.830;151.202;2023-03-21T00:50:33;8.58;;;3.33;;
25667;SDS011;18003;-33.830;151.202;2023-03-21T00:53:03;10.98;;;3.10;;
25667;SDS011;18003;-33.830;151.202;2023-03-21T00:55:33;10.88;;;3.35;;
25667;SDS011;18003;-33.830;151.202;2023-03-21T00:58:04;9.18;;;2.95;;
25667;SDS011;18003;-33.830;151.202;2023-03-21T01:00:34;11.28;;;3.15;;
25667;SDS011;18003;-33.830;151.202;2023-03-21T01:03:05;8.33;;;2.98;;
25667;SDS011;18003;-33.830;151.202;2023-03-21T01:05:37;9.83;;;3.10;;
25667;SDS011;18003;-33.830;151.202;2023-03-21T01:08:26;10.72;;;3.40;;
25667;SDS011;18003;-33.830;151.202;2023-03-21T01:10:59;8.03;;;3.27;;
25667;SDS011;18003;-33.830;151.202;2023-03-21T01:13:32;7.65;;;3.35;;
25667;SDS011;18003;-33.830;151.202;2023-03-21T01:16:02;10.98;;;3.65;;
25667;SDS011;18003;-33.830;151.202;2023-03-21T01:18:34;7.75;;;3.37;;
25667;SDS011;18003;-33.830;151.202;2023-03-21T01:21:05;11.85;;;3.42;;
25667;SDS011;18003;-33.830;151.202;2023-03-21T01:23:37;10.82;;;3.50;;
25667;SDS011;18003;-33.830;151.202;2023-03-21T01:26:08;9.40;;;3.45;;
25667;SDS011;18003;-33.830;151.202;2023-03-21T01:28:39;9.88;;;3.10;;
25667;SDS011;18003;-33.830;151.202;2023-03-21T01:31:11;12.73;;;3.98;;
25667;SDS011;18003;-33.830;151.202;2023-03-21T01:33:42;7.72;;;3.12;;
25667;SDS011;18003;-33.830;151.202;2023-03-21T01:36:20;9.55;;;3.58;;
25667;SDS011;18003;-33.830;151.202;2023-03-21T01:38:47;9.03;;;3.72;;
25667;SDS011;18003;-33.830;151.202;2023-03-21T01:41:24;9.63;;;3.40;;
25667;SDS011;18003;-33.830;151.202;2023-03-21T01:43:52;7.55;;;3.30;;
25667;SDS011;18003;-33.830;151.202;2023-03-21T01:52:02;10.43;;;3.98;;
25667;SDS011;18003;-33.830;151.202;2023-03-21T01:54:39;9.08;;;3.37;;
25667;SDS011;18003;-33.830;151.202;2023-03-21T01:57:15;9.23;;;3.50;;
25667;SDS011;18003;-33.830;151.202;2023-03-21T01:59:46;11.30;;;3.92;;
25667;SDS011;18003;-33.830;151.202;2023-03-21T02:02:25;11.70;;;3.50;;
25667;SDS011;18003;-33.830;151.202;2023-03-21T02:04:56;9.65;;;3.47;;
25667;SDS011;18003;-33.830;151.202;2023-03-21T02:07:30;11.43;;;3.47;;
25667;SDS011;18003;-33.830;151.202;2023-03-21T02:10:07;10.48;;;3.58;;
25667;SDS011;18003;-33.830;151.202;2023-03-21T02:12:34;10.70;;;3.20;;
25667;SDS011;18003;-33.830;151.202;2023-03-21T02:15:04;10.90;;;3.20;;
25667;SDS011;18003;-33.830;151.202;2023-03-21T02:17:47;9.10;;;3.15;;
25667;SDS011;18003;-33.830;151.202;2023-03-21T02:26:27;11.53;;;3.15;;
25667;SDS011;18003;-33.830;151.202;2023-03-21T02:37:38;8.83;;;3.20;;
25667;SDS011;18003;-33.830;151.202;2023-03-21T02:40:14;8.33;;;3.42;;
25667;SDS011;18003;-33.830;151.202;2023-03-21T02:45:18;7.58;;;3.20;;
25667;SDS011;18003;-33.830;151.202;2023-03-21T02:47:49;9.50;;;3.30;;
25667;SDS011;18003;-33.830;151.202;2023-03-21T02:50:27;7.15;;;3.30;;
25667;SDS011;18003;-33.830;151.202;2023-03-21T02:53:03;8.55;;;3.05;;
25667;SDS011;18003;-33.830;151.202;2023-03-21T02:55:34;9.40;;;3.42;;
25667;SDS011;18003;-33.830;151.202;2023-03-21T02:58:05;9.58;;;3.30;;
25667;SDS011;18003;-33.830;151.202;2023-03-21T03:00:36;8.53;;;3.58;;
25667;SDS011;18003;-33.830;151.202;2023-03-21T03:03:08;12.90;;;3.50;;
25667;SDS011;18003;-33.830;151.202;2023-03-21T03:05:45;11.63;;;3.52;;
25667;SDS011;18003;-33.830;151.202;2023-03-21T03:16:16;12.20;;;3.25;;
25667;SDS011;18003;-33.830;151.202;2023-03-21T03:18:54;11.18;;;3.22;;
25667;SDS011;18003;-33.830;151.202;2023-03-21T03:21:36;8.60;;;3.08;;
25667;SDS011;18003;-33.830;151.202;2023-03-21T03:24:25;11.18;;;3.33;;
25667;SDS011;18003;-33.830;151.202;2023-03-21T03:27:01;8.58;;;3.33;;
25667;SDS011;18003;-33.830;151.202;2023-03-21T03:29:31;7.80;;;2.92;;
25667;SDS011;18003;-33.830;151.202;2023-03-21T03:32:07;9.93;;;2.75;;
25667;SDS011;18003;-33.830;151.202;2023-03-21T03:34:48;11.97;;;3.05;;
25667;SDS011;18003;-33.830;151.202;2023-03-21T03:37:30;7.12;;;3.10;;
25667;SDS011;18003;-33.830;151.202;2023-03-21T03:40:05;10.80;;;3.40;;
25667;SDS011;18003;-33.830;151.202;2023-03-21T03:42:35;8.58;;;3.10;;
25667;SDS011;18003;-33.830;151.202;2023-03-21T03:45:19;7.37;;;2.77;;
25667;SDS011;18003;-33.830;151.202;2023-03-21T03:47:56;8.18;;;3.30;;
25667;SDS011;18003;-33.830;151.202;2023-03-21T03:50:33;8.03;;;3.42;;
25667;SDS011;18003;-33.830;151.202;2023-03-21T03:53:05;11.08;;;3.10;;
25667;SDS011;18003;-33.830;151.202;2023-03-21T03:55:35;7.35;;;3.40;;
25667;SDS011;18003;-33.830;151.202;2023-03-21T03:58:05;10.08;;;3.37;;
25667;SDS011;18003;-33.830;151.202;2023-03-21T04:00:35;10.72;;;2.85;;
25667;SDS011;18003;-33.830;151.202;2023-03-21T04:05:36;9.03;;;3.95;;
25667;SDS011;18003;-33.830;151.202;2023-03-21T04:08:07;6.87;;;3.70;;
25667;SDS011;18003;-33.830;151.202;2023-03-21T04:10:37;13.95;;;4.42;;
25667;SDS011;18003;-33.830;151.202;2023-03-21T04:13:07;9.58;;;4.15;;
25667;SDS011;18003;-33.830;151.202;2023-03-21T04:15:38;10.45;;;3.83;;
25667;SDS011;18003;-33.830;151.202;2023-03-21T04:18:08;10.25;;;4.40;;
25667;SDS011;18003;-33.830;151.202;2023-03-21T04:20:38;9.85;;;4.15;;
25667;SDS011;18003;-33.830;151.202;2023-03-21T04:23:09;10.50;;;4.50;;
25667;SDS011;18003;-33.830;151.202;2023-03-21T04:25:39;11.00;;;4.17;;
25667;SDS011;18003;-33.830;151.202;2023-03-21T04:28:10;11.48;;;4.12;;
25667;SDS011;18003;-33.830;151.202;2023-03-21T04:30:40;9.60;;;4.10;;
25667;SDS011;18003;-33.830;151.202;2023-03-21T04:33:11;10.03;;;4.08;;
25667;SDS011;18003;-33.830;151.202;2023-03-21T04:35:42;9.85;;;4.20;;
25667;SDS011;18003;-33.830;151.202;2023-03-21T04:38:12;9.43;;;4.17;;
25667;SDS011;18003;-33.830;151.202;2023-03-21T04:40:42;10.10;;;4.05;;
25667;SDS011;18003;-33.830;151.202;2023-03-21T04:43:12;15.95;;;4.85;;
25667;SDS011;18003;-33.830;151.202;2023-03-21T04:45:42;9.98;;;3.98;;
25667;SDS011;18003;-33.830;151.202;2023-03-21T04:48:12;9.73;;;4.25;;
25667;SDS011;18003;-33.830;151.202;2023-03-21T04:50:43;8.88;;;4.10;;
25667;SDS011;18003;-33.830;151.202;2023-03-21T04:53:13;10.68;;;3.77;;
25667;SDS011;18003;-33.830;151.202;2023-03-21T04:55:44;10.08;;;2.92;;
25667;SDS011;18003;-33.830;151.202;2023-03-21T04:58:14;9.35;;;2.83;;
25667;SDS011;18003;-33.830;151.202;2023-03-21T05:00:45;6.67;;;2.92;;
25667;SDS011;18003;-33.830;151.202;2023-03-21T05:03:15;8.38;;;2.90;;
25667;SDS011;18003;-33.830;151.202;2023-03-21T05:05:47;8.83;;;2.65;;
25667;SDS011;18003;-33.830;151.202;2023-03-21T05:08:17;8.50;;;2.50;;
25667;SDS011;18003;-33.830;151.202;2023-03-21T05:10:47;11.95;;;3.05;;
25667;SDS011;18003;-33.830;151.202;2023-03-21T05:13:17;6.60;;;2.70;;
25667;SDS011;18003;-33.830;151.202;2023-03-21T05:15:47;7.08;;;2.70;;
25667;SDS011;18003;-33.830;151.202;2023-03-21T05:18:17;10.08;;;2.70;;
25667;SDS011;18003;-33.830;151.202;2023-03-21T05:20:49;10.05;;;3.22;;
25667;SDS011;18003;-33.830;151.202;2023-03-21T05:23:20;8.38;;;3.02;;
25667;SDS011;18003;-33.830;151.202;2023-03-21T05:25:51;8.05;;;2.70;;
25667;SDS011;18003;-33.830;151.202;2023-03-21T05:28:21;11.63;;;3.05;;
25667;SDS011;18003;-33.830;151.202;2023-03-21T05:30:52;5.37;;;3.02;;
25667;SDS011;18003;-33.830;151.202;2023-03-21T05:33:22;6.67;;;2.90;;
25667;SDS011;18003;-33.830;151.202;2023-03-21T05:35:52;4.85;;;2.77;;
25667;SDS011;18003;-33.830;151.202;2023-03-21T05:38:23;6.47;;;2.90;;
25667;SDS011;18003;-33.830;151.202;2023-03-21T05:40:53;7.83;;;2.70;;
25667;SDS011;18003;-33.830;151.202;2023-03-21T05:43:23;6.35;;;2.90;;
25667;SDS011;18003;-33.830;151.202;2023-03-21T05:45:53;6.10;;;2.90;;
25667;SDS011;18003;-33.830;151.202;2023-03-21T05:48:23;8.70;;;3.20;;
25667;SDS011;18003;-33.830;151.202;2023-03-21T05:50:53;7.28;;;2.87;;
25667;SDS011;18003;-33.830;151.202;2023-03-21T05:53:23;8.83;;;2.98;;
25667;SDS011;18003;-33.830;151.202;2023-03-21T05:55:52;7.05;;;2.58;;
25667;SDS011;18003;-33.830;151.202;2023-03-21T05:58:22;6.30;;;2.62;;
25667;SDS011;18003;-33.830;151.202;2023-03-21T06:00:53;4.55;;;2.50;;
25667;SDS011;18003;-33.830;151.202;2023-03-21T06:03:23;6.50;;;2.62;;
25667;SDS011;18003;-33.830;151.202;2023-03-21T06:05:53;7.42;;;2.50;;
25667;SDS011;18003;-33.830;151.202;2023-03-21T06:08:23;5.65;;;2.80;;
25667;SDS011;18003;-33.830;151.202;2023-03-21T06:10:53;6.40;;;2.95;;
25667;SDS011;18003;-33.830;151.202;2023-03-21T06:13:23;6.90;;;2.85;;
25667;SDS011;18003;-33.830;151.202;2023-03-21T06:15:53;6.28;;;2.45;;
25667;SDS011;18003;-33.830;151.202;2023-03-21T06:18:23;5.50;;;3.05;;
25667;SDS011;18003;-33.830;151.202;2023-03-21T06:20:54;7.17;;;3.17;;
25667;SDS011;18003;-33.830;151.202;2023-03-21T06:23:24;5.40;;;2.40;;
25667;SDS011;18003;-33.830;151.202;2023-03-21T06:25:54;5.65;;;2.42;;
25667;SDS011;18003;-33.830;151.202;2023-03-21T06:28:24;7.72;;;3.10;;
25667;SDS011;18003;-33.830;151.202;2023-03-21T06:30:54;4.90;;;2.60;;
25667;SDS011;18003;-33.830;151.202;2023-03-21T06:33:24;4.90;;;2.70;;
25667;SDS011;18003;-33.830;151.202;2023-03-21T06:35:55;10.30;;;2.98;;
25667;SDS011;18003;-33.830;151.202;2023-03-21T06:38:25;6.35;;;2.65;;
25667;SDS011;18003;-33.830;151.202;2023-03-21T06:40:56;5.22;;;2.20;;
25667;SDS011;18003;-33.830;151.202;2023-03-21T06:43:28;7.50;;;2.67;;
25667;SDS011;18003;-33.830;151.202;2023-03-21T06:45:58;7.20;;;2.80;;
25667;SDS011;18003;-33.830;151.202;2023-03-21T06:48:29;6.05;;;2.30;;
25667;SDS011;18003;-33.830;151.202;2023-03-21T06:50:59;6.03;;;2.67;;
25667;SDS011;18003;-33.830;151.202;2023-03-21T06:53:39;10.20;;;2.73;;
25667;SDS011;18003;-33.830;151.202;2023-03-21T06:56:13;6.62;;;2.37;;
25667;SDS011;18003;-33.830;151.202;2023-03-21T06:58:43;4.90;;;1.95;;
25667;SDS011;18003;-33.830;151.202;2023-03-21T07:01:14;8.25;;;2.55;;
25667;SDS011;18003;-33.830;151.202;2023-03-21T07:03:44;5.67;;;2.02;;
25667;SDS011;18003;-33.830;151.202;2023-03-21T07:06:14;4.78;;;1.87;;
25667;SDS011;18003;-33.830;151.202;2023-03-21T07:08:44;6.60;;;1.60;;
25667;SDS011;18003;-33.830;151.202;2023-03-21T07:11:14;6.60;;;2.30;;
25667;SDS011;18003;-33.830;151.202;2023-03-21T07:13:44;9.53;;;2.40;;
25667;SDS011;18003;-33.830;151.202;2023-03-21T07:16:17;5.60;;;2.08;;
25667;SDS011;18003;-33.830;151.202;2023-03-21T07:18:48;3.92;;;1.92;;
25667;SDS011;18003;-33.830;151.202;2023-03-21T07:21:18;8.00;;;2.00;;
25667;SDS011;18003;-33.830;151.202;2023-03-21T07:23:48;4.25;;;1.70;;
25667;SDS011;18003;-33.830;151.202;2023-03-21T07:26:18;7.55;;;2.20;;
25667;SDS011;18003;-33.830;151.202;2023-03-21T07:28:48;8.25;;;2.50;;
25667;SDS011;18003;-33.830;151.202;2023-03-21T07:31:18;6.03;;;2.22;;
25667;SDS011;18003;-33.830;151.202;2023-03-21T07:33:50;6.15;;;2.42;;
25667;SDS011;18003;-33.830;151.202;2023-03-21T07:36:20;7.20;;;2.00;;
25667;SDS011;18003;-33.830;151.202;2023-03-21T07:38:50;4.33;;;2.00;;
25667;SDS011;18003;-33.830;151.202;2023-03-21T07:41:20;8.45;;;2.30;;
25667;SDS011;18003;-33.830;151.202;2023-03-21T07:43:51;6.42;;;2.25;;
25667;SDS011;18003;-33.830;151.202;2023-03-21T07:46:21;8.25;;;2.00;;
25667;SDS011;18003;-33.830;151.202;2023-03-21T07:48:51;5.80;;;2.40;;
25667;SDS011;18003;-33.830;151.202;2023-03-21T07:51:21;5.25;;;1.87;;
25667;SDS011;18003;-33.830;151.202;2023-03-21T07:53:51;7.95;;;2.10;;
25667;SDS011;18003;-33.830;151.202;2023-03-21T07:56:21;6.60;;;2.30;;
25667;SDS011;18003;-33.830;151.202;2023-03-21T07:58:51;7.95;;;2.20;;
25667;SDS011;18003;-33.830;151.202;2023-03-21T08:01:21;5.30;;;2.10;;
25667;SDS011;18003;-33.830;151.202;2023-03-21T08:03:52;6.75;;;2.37;;
25667;SDS011;18003;-33.830;151.202;2023-03-21T08:06:22;5.12;;;2.40;;
25667;SDS011;18003;-33.830;151.202;2023-03-21T08:08:54;5.12;;;2.20;;
25667;SDS011;18003;-33.830;151.202;2023-03-21T08:11:24;7.80;;;2.67;;
25667;SDS011;18003;-33.830;151.202;2023-03-21T08:13:55;4.97;;;2.27;;
25667;SDS011;18003;-33.830;151.202;2023-03-21T08:16:28;6.08;;;2.20;;
25667;SDS011;18003;-33.830;151.202;2023-03-21T08:18:58;5.95;;;2.12;;
25667;SDS011;18003;-33.830;151.202;2023-03-21T08:21:28;4.58;;;2.40;;
25667;SDS011;18003;-33.830;151.202;2023-03-21T08:23:59;6.03;;;2.20;;
25667;SDS011;18003;-33.830;151.202;2023-03-21T08:26:28;7.37;;;2.40;;
25667;SDS011;18003;-33.830;151.202;2023-03-21T08:28:59;4.90;;;2.45;;
25667;SDS011;18003;-33.830;151.202;2023-03-21T08:31:29;5.65;;;2.00;;
25667;SDS011;18003;-33.830;151.202;2023-03-21T08:33:59;4.35;;;2.45;;
25667;SDS011;18003;-33.830;151.202;2023-03-21T08:36:29;6.30;;;2.70;;
25667;SDS011;18003;-33.830;151.202;2023-03-21T08:38:59;5.65;;;2.40;;
25667;SDS011;18003;-33.830;151.202;2023-03-21T08:43:59;4.60;;;2.08;;
25667;SDS011;18003;-33.830;151.202;2023-03-21T08:46:31;5.62;;;2.22;;
25667;SDS011;18003;-33.830;151.202;2023-03-21T08:49:01;4.85;;;2.40;;
25667;SDS011;18003;-33.830;151.202;2023-03-21T08:51:31;7.33;;;2.92;;
25667;SDS011;18003;-33.830;151.202;2023-03-21T08:54:03;4.20;;;2.42;;
25667;SDS011;18003;-33.830;151.202;2023-03-21T08:56:33;6.30;;;2.40;;
25667;SDS011;18003;-33.830;151.202;2023-03-21T08:59:03;5.30;;;2.10;;
25667;SDS011;18003;-33.830;151.202;2023-03-21T09:01:34;4.05;;;1.87;;
25667;SDS011;18003;-33.830;151.202;2023-03-21T09:04:04;3.08;;;1.70;;
25667;SDS011;18003;-33.830;151.202;2023-03-21T09:06:38;5.10;;;2.10;;
25667;SDS011;18003;-33.830;151.202;2023-03-21T09:09:09;5.90;;;2.17;;
25667;SDS011;18003;-33.830;151.202;2023-03-21T09:11:39;5.95;;;1.85;;
25667;SDS011;18003;-33.830;151.202;2023-03-21T09:14:10;5.65;;;1.87;;
25667;SDS011;18003;-33.830;151.202;2023-03-21T09:16:40;4.22;;;1.82;;
25667;SDS011;18003;-33.830;151.202;2023-03-21T09:19:10;5.60;;;1.90;;
25667;SDS011;18003;-33.830;151.202;2023-03-21T09:21:41;4.92;;;2.08;;
25667;SDS011;18003;-33.830;151.202;2023-03-21T09:24:12;3.53;;;1.47;;
25667;SDS011;18003;-33.830;151.202;2023-03-21T09:26:43;4.35;;;2.10;;
25667;SDS011;18003;-33.830;151.202;2023-03-21T09:29:14;6.80;;;2.08;;
25667;SDS011;18003;-33.830;151.202;2023-03-21T09:34:14;6.75;;;2.10;;
25667;SDS011;18003;-33.830;151.202;2023-03-21T09:36:44;4.95;;;1.90;;
25667;SDS011;18003;-33.830;151.202;2023-03-21T09:39:18;4.60;;;1.90;;
25667;SDS011;18003;-33.830;151.202;2023-03-21T09:49:40;3.62;;;1.70;;
25667;SDS011;18003;-33.830;151.202;2023-03-21T09:52:18;5.65;;;1.80;;
25667;SDS011;18003;-33.830;151.202;2023-03-21T09:54:51;4.65;;;1.60;;
25667;SDS011;18003;-33.830;151.202;2023-03-21T10:00:16;4.30;;;1.50;;
25667;SDS011;18003;-33.830;151.202;2023-03-21T10:02:49;5.37;;;1.92;;
25667;SDS011;18003;-33.830;151.202;2023-03-21T10:05:23;5.45;;;1.80;;
25667;SDS011;18003;-33.830;151.202;2023-03-21T10:10:38;5.87;;;1.80;;
25667;SDS011;18003;-33.830;151.202;2023-03-21T10:13:05;3.02;;;1.72;;
25667;SDS011;18003;-33.830;151.202;2023-03-21T10:15:36;4.75;;;1.60;;
25667;SDS011;18003;-33.830;151.202;2023-03-21T10:18:10;5.30;;;1.80;;
25667;SDS011;18003;-33.830;151.202;2023-03-21T10:20:40;4.28;;;1.45;;
25667;SDS011;18003;-33.830;151.202;2023-03-21T10:25:41;4.10;;;1.40;;
25667;SDS011;18003;-33.830;151.202;2023-03-21T10:28:19;5.20;;;1.70;;
25667;SDS011;18003;-33.830;151.202;2023-03-21T10:30:57;4.75;;;1.80;;
25667;SDS011;18003;-33.830;151.202;2023-03-21T10:33:23;6.12;;;1.75;;
25667;SDS011;18003;-33.830;151.202;2023-03-21T10:36:02;4.80;;;1.67;;
25667;SDS011;18003;-33.830;151.202;2023-03-21T10:38:28;4.42;;;1.50;;
25667;SDS011;18003;-33.830;151.202;2023-03-21T10:40:59;5.05;;;1.70;;
25667;SDS011;18003;-33.830;151.202;2023-03-21T10:43:29;3.17;;;1.62;;
25667;SDS011;18003;-33.830;151.202;2023-03-21T10:46:07;4.05;;;1.40;;
25667;SDS011;18003;-33.830;151.202;2023-03-21T10:48:49;4.87;;;1.47;;
25667;SDS011;18003;-33.830;151.202;2023-03-21T10:51:19;2.67;;;1.30;;
25667;SDS011;18003;-33.830;151.202;2023-03-21T10:56:35;4.08;;;1.50;;
25667;SDS011;18003;-33.830;151.202;2023-03-21T10:59:07;6.65;;;1.70;;
25667;SDS011;18003;-33.830;151.202;2023-03-21T11:01:42;4.05;;;1.60;;
25667;SDS011;18003;-33.830;151.202;2023-03-21T11:04:15;4.67;;;1.40;;
25667;SDS011;18003;-33.830;151.202;2023-03-21T11:06:56;4.45;;;1.37;;
25667;SDS011;18003;-33.830;151.202;2023-03-21T11:09:25;5.97;;;1.90;;
25667;SDS011;18003;-33.830;151.202;2023-03-21T11:12:14;4.12;;;1.62;;
25667;SDS011;18003;-33.830;151.202;2023-03-21T11:14:45;4.10;;;1.65;;
25667;SDS011;18003;-33.830;151.202;2023-03-21T11:19:50;4.05;;;1.82;;
25667;SDS011;18003;-33.830;151.202;2023-03-21T11:25:19;3.67;;;1.55;;
25667;SDS011;18003;-33.830;151.202;2023-03-21T11:27:49;5.05;;;1.50;;
25667;SDS011;18003;-33.830;151.202;2023-03-21T11:30:24;4.45;;;1.72;;
25667;SDS011;18003;-33.830;151.202;2023-03-21T11:35:27;4.95;;;1.90;;
25667;SDS011;18003;-33.830;151.202;2023-03-21T11:38:02;5.75;;;2.25;;
25667;SDS011;18003;-33.830;151.202;2023-03-21T11:40:33;5.60;;;2.10;;
25667;SDS011;18003;-33.830;151.202;2023-03-21T11:46:23;4.28;;;1.80;;
25667;SDS011;18003;-33.830;151.202;2023-03-21T11:48:31;3.97;;;1.83;;
25667;SDS011;18003;-33.830;151.202;2023-03-21T11:51:03;3.72;;;1.70;;
25667;SDS011;18003;-33.830;151.202;2023-03-21T12:15:56;6.67;;;2.00;;
25667;SDS011;18003;-33.830;151.202;2023-03-21T12:18:52;4.75;;;1.82;;
25667;SDS011;18003;-33.830;151.202;2023-03-21T12:22:14;5.70;;;2.25;;
25667;SDS011;18003;-33.830;151.202;2023-03-21T12:29:51;3.80;;;2.02;;
25667;SDS011;18003;-33.830;151.202;2023-03-21T12:40:43;5.58;;;2.17;;
25667;SDS011;18003;-33.830;151.202;2023-03-21T12:46:02;5.78;;;2.27;;
25667;SDS011;18003;-33.830;151.202;2023-03-21T12:48:48;4.87;;;2.20;;
25667;SDS011;18003;-33.830;151.202;2023-03-21T12:51:20;5.20;;;2.42;;
25667;SDS011;18003;-33.830;151.202;2023-03-21T12:53:55;4.42;;;2.20;;
25667;SDS011;18003;-33.830;151.202;2023-03-21T12:56:30;5.42;;;2.20;;
25667;SDS011;18003;-33.830;151.202;2023-03-21T12:58:59;7.30;;;2.25;;
25667;SDS011;18003;-33.830;151.202;2023-03-21T13:01:35;7.05;;;1.95;;
25667;SDS011;18003;-33.830;151.202;2023-03-21T13:06:57;6.40;;;2.00;;
25667;SDS011;18003;-33.830;151.202;2023-03-21T13:22:58;4.05;;;1.67;;
25667;SDS011;18003;-33.830;151.202;2023-03-21T13:25:29;6.60;;;2.10;;
25667;SDS011;18003;-33.830;151.202;2023-03-21T13:28:00;4.70;;;1.97;;
25667;SDS011;18003;-33.830;151.202;2023-03-21T13:30:32;4.00;;;2.00;;
25667;SDS011;18003;-33.830;151.202;2023-03-21T13:33:11;4.47;;;1.80;;
25667;SDS011;18003;-33.830;151.202;2023-03-21T13:35:43;3.72;;;1.80;;
25667;SDS011;18003;-33.830;151.202;2023-03-21T13:38:19;5.25;;;1.80;;
25667;SDS011;18003;-33.830;151.202;2023-03-21T13:40:50;3.52;;;1.62;;
25667;SDS011;18003;-33.830;151.202;2023-03-21T13:43:54;5.92;;;1.95;;
25667;SDS011;18003;-33.830;151.202;2023-03-21T13:46:35;7.37;;;2.25;;
25667;SDS011;18003;-33.830;151.202;2023-03-21T13:51:42;4.15;;;1.77;;
25667;SDS011;18003;-33.830;151.202;2023-03-21T13:56:47;4.87;;;1.90;;
25667;SDS011;18003;-33.830;151.202;2023-03-21T14:05:00;5.12;;;2.50;;
25667;SDS011;18003;-33.830;151.202;2023-03-21T14:07:35;5.15;;;2.05;;
25667;SDS011;18003;-33.830;151.202;2023-03-21T14:10:07;4.78;;;1.90;;
25667;SDS011;18003;-33.830;151.202;2023-03-21T14:12:39;6.15;;;2.20;;
25667;SDS011;18003;-33.830;151.202;2023-03-21T14:17:59;2.85;;;2.00;;
25667;SDS011;18003;-33.830;151.202;2023-03-21T14:20:27;6.90;;;2.20;;
25667;SDS011;18003;-33.830;151.202;2023-03-21T14:22:58;6.40;;;2.27;;
25667;SDS011;18003;-33.830;151.202;2023-03-21T14:25:32;7.70;;;2.35;;
25667;SDS011;18003;-33.830;151.202;2023-03-21T14:28:05;5.67;;;2.05;;
25667;SDS011;18003;-33.830;151.202;2023-03-21T14:30:36;4.75;;;1.90;;
25667;SDS011;18003;-33.830;151.202;2023-03-21T14:35:56;5.22;;;2.08;;
25667;SDS011;18003;-33.830;151.202;2023-03-21T14:38:31;4.83;;;2.10;;
25667;SDS011;18003;-33.830;151.202;2023-03-21T14:41:02;6.92;;;2.50;;
25667;SDS011;18003;-33.830;151.202;2023-03-21T14:43:33;3.05;;;1.80;;
25667;SDS011;18003;-33.830;151.202;2023-03-21T14:46:03;6.30;;;2.10;;
25667;SDS011;18003;-33.830;151.202;2023-03-21T14:48:33;3.87;;;2.00;;
25667;SDS011;18003;-33.830;151.202;2023-03-21T14:51:04;4.10;;;1.85;;
25667;SDS011;18003;-33.830;151.202;2023-03-21T14:53:36;5.17;;;1.87;;
25667;SDS011;18003;-33.830;151.202;2023-03-21T14:56:16;5.22;;;1.77;;
25667;SDS011;18003;-33.830;151.202;2023-03-21T14:58:45;6.28;;;2.10;;
25667;SDS011;18003;-33.830;151.202;2023-03-21T15:01:26;4.03;;;1.75;;
25667;SDS011;18003;-33.830;151.202;2023-03-21T15:03:51;5.92;;;1.80;;
25667;SDS011;18003;-33.830;151.202;2023-03-21T15:06:21;5.40;;;1.85;;
25667;SDS011;18003;-33.830;151.202;2023-03-21T15:08:55;5.55;;;1.75;;
25667;SDS011;18003;-33.830;151.202;2023-03-21T15:11:30;4.78;;;1.90;;
25667;SDS011;18003;-33.830;151.202;2023-03-21T15:14:05;5.92;;;1.87;;
25667;SDS011;18003;-33.830;151.202;2023-03-21T15:16:36;5.45;;;1.80;;
25667;SDS011;18003;-33.830;151.202;2023-03-21T15:19:06;6.17;;;2.27;;
25667;SDS011;18003;-33.830;151.202;2023-03-21T15:21:39;5.67;;;1.92;;
25667;SDS011;18003;-33.830;151.202;2023-03-21T15:24:12;4.35;;;1.65;;
25667;SDS011;18003;-33.830;151.202;2023-03-21T15:26:45;5.08;;;2.00;;
25667;SDS011;18003;-33.830;151.202;2023-03-21T15:29:16;6.33;;;1.87;;
25667;SDS011;18003;-33.830;151.202;2023-03-21T15:31:47;6.08;;;2.00;;
25667;SDS011;18003;-33.830;151.202;2023-03-21T15:34:18;4.10;;;1.82;;
25667;SDS011;18003;-33.830;151.202;2023-03-21T15:36:49;7.67;;;2.30;;
25667;SDS011;18003;-33.830;151.202;2023-03-21T15:39:20;6.92;;;2.08;;
25667;SDS011;18003;-33.830;151.202;2023-03-21T15:44:28;6.37;;;2.02;;
25667;SDS011;18003;-33.830;151.202;2023-03-21T15:46:58;6.72;;;2.10;;
25667;SDS011;18003;-33.830;151.202;2023-03-21T15:49:29;6.60;;;1.85;;
25667;SDS011;18003;-33.830;151.202;2023-03-21T15:52:06;4.90;;;2.20;;
25667;SDS011;18003;-33.830;151.202;2023-03-21T15:54:42;4.30;;;2.00;;
25667;SDS011;18003;-33.830;151.202;2023-03-21T15:59:55;4.87;;;2.00;;
25667;SDS011;18003;-33.830;151.202;2023-03-21T16:02:29;4.87;;;1.95;;
25667;SDS011;18003;-33.830;151.202;2023-03-21T16:05:00;3.98;;;2.00;;
25667;SDS011;18003;-33.830;151.202;2023-03-21T16:07:32;5.67;;;1.90;;
25667;SDS011;18003;-33.830;151.202;2023-03-21T16:10:02;5.87;;;2.30;;
25667;SDS011;18003;-33.830;151.202;2023-03-21T16:12:32;5.57;;;2.20;;
25667;SDS011;18003;-33.830;151.202;2023-03-21T16:15:03;5.47;;;2.15;;
25667;SDS011;18003;-33.830;151.202;2023-03-21T16:17:34;5.62;;;2.22;;
25667;SDS011;18003;-33.830;151.202;2023-03-21T16:20:16;3.72;;;2.00;;
25667;SDS011;18003;-33.830;151.202;2023-03-21T16:22:43;6.70;;;2.12;;
25667;SDS011;18003;-33.830;151.202;2023-03-21T16:25:13;4.25;;;1.92;;
25667;SDS011;18003;-33.830;151.202;2023-03-21T16:27:43;6.45;;;1.90;;
25667;SDS011;18003;-33.830;151.202;2023-03-21T16:30:14;7.60;;;2.17;;
25667;SDS011;18003;-33.830;151.202;2023-03-21T16:32:45;4.62;;;1.82;;
25667;SDS011;18003;-33.830;151.202;2023-03-21T16:35:16;5.20;;;1.90;;
25667;SDS011;18003;-33.830;151.202;2023-03-21T16:37:46;4.75;;;1.82;;
25667;SDS011;18003;-33.830;151.202;2023-03-21T16:40:27;6.62;;;1.90;;
25667;SDS011;18003;-33.830;151.202;2023-03-21T16:42:58;4.58;;;1.92;;
25667;SDS011;18003;-33.830;151.202;2023-03-21T16:45:28;4.37;;;2.02;;
25667;SDS011;18003;-33.830;151.202;2023-03-21T16:47:58;5.92;;;2.27;;
25667;SDS011;18003;-33.830;151.202;2023-03-21T16:50:30;3.90;;;1.92;;
25667;SDS011;18003;-33.830;151.202;2023-03-21T16:53:00;4.87;;;2.05;;
25667;SDS011;18003;-33.830;151.202;2023-03-21T16:55:30;5.90;;;2.12;;
25667;SDS011;18003;-33.830;151.202;2023-03-21T16:58:00;6.45;;;2.10;;